createdAt,value
2018-12-06T00:00:40.949Z,817.01
2018-12-06T00:01:40.973Z,817.01
2018-12-06T00:02:40.972Z,816.98
2018-12-06T00:03:40.985Z,816.94
2018-12-06T00:04:41.000Z,817.00
2018-12-06T00:05:41.012Z,816.94
2018-12-06T00:06:41.021Z,816.88
2018-12-06T00:07:41.034Z,816.88
2018-12-06T00:08:41.051Z,816.88
2018-12-06T00:09:41.063Z,816.91
2018-12-06T00:10:41.071Z,816.83
2018-12-06T00:11:41.082Z,816.86
2018-12-06T00:12:41.096Z,816.85
2018-12-06T00:13:41.110Z,816.86
2018-12-06T00:14:41.126Z,816.87
2018-12-06T00:15:41.131Z,816.89
2018-12-06T00:16:41.143Z,816.92
2018-12-06T00:17:41.155Z,816.95
2018-12-06T00:18:41.165Z,816.95
2018-12-06T00:19:41.179Z,817.01
2018-12-06T00:20:41.191Z,816.97
2018-12-06T00:21:41.203Z,816.91
2018-12-06T00:22:41.214Z,816.91
2018-12-06T00:23:41.227Z,816.85
2018-12-06T00:24:41.240Z,816.92
2018-12-06T00:25:41.249Z,816.94
2018-12-06T00:26:41.264Z,816.90
2018-12-06T00:27:41.273Z,816.91
2018-12-06T00:28:41.285Z,816.90
2018-12-06T00:29:41.298Z,816.91
2018-12-06T00:30:41.314Z,816.92
2018-12-06T00:31:41.322Z,816.93
2018-12-06T00:32:41.333Z,816.96
2018-12-06T00:33:41.350Z,816.94
2018-12-06T00:34:41.355Z,816.94
2018-12-06T00:35:41.372Z,816.94
2018-12-06T00:36:41.385Z,816.98
2018-12-06T00:37:41.392Z,817.00
2018-12-06T00:38:41.405Z,817.02
2018-12-06T00:39:41.415Z,816.94
2018-12-06T00:40:41.433Z,816.96
2018-12-06T00:41:41.439Z,816.95
2018-12-06T00:42:41.452Z,816.95
2018-12-06T00:43:41.466Z,817.12
2018-12-06T00:44:41.473Z,817.01
2018-12-06T00:45:41.485Z,817.02
2018-12-06T00:46:41.498Z,817.02
2018-12-06T00:47:41.509Z,817.03
2018-12-06T00:48:41.521Z,817.10
2018-12-06T00:49:41.535Z,817.08
2018-12-06T00:50:41.547Z,817.01
2018-12-06T00:51:41.553Z,816.99
2018-12-06T00:52:41.564Z,817.03
2018-12-06T00:53:41.578Z,817.14
2018-12-06T00:54:41.588Z,817.07
2018-12-06T00:55:41.600Z,817.10
2018-12-06T00:56:41.612Z,817.11
2018-12-06T00:57:41.623Z,817.08
2018-12-06T00:58:41.636Z,817.10
2018-12-06T00:59:41.645Z,817.07
2018-12-06T01:00:41.657Z,817.02
2018-12-06T01:01:41.668Z,817.07
2018-12-06T01:02:41.679Z,817.03
2018-12-06T01:03:41.691Z,817.08
2018-12-06T01:04:41.708Z,817.03
2018-12-06T01:05:41.714Z,817.06
2018-12-06T01:06:41.724Z,817.06
2018-12-06T01:07:41.736Z,817.04
2018-12-06T01:08:41.747Z,817.01
2018-12-06T01:09:41.763Z,817.07
2018-12-06T01:10:41.769Z,817.10
2018-12-06T01:11:41.781Z,817.05
2018-12-06T01:12:41.789Z,817.02
2018-12-06T01:13:41.807Z,816.99
2018-12-06T01:14:41.816Z,816.95
2018-12-06T01:15:41.827Z,817.03
2018-12-06T01:16:41.838Z,816.94
2018-12-06T01:17:41.848Z,816.92
2018-12-06T01:18:41.864Z,816.90
2018-12-06T01:19:41.870Z,816.84
2018-12-06T01:20:41.881Z,816.95
2018-12-06T01:21:41.896Z,817.04
2018-12-06T01:22:41.909Z,816.95
2018-12-06T01:23:41.918Z,816.92
2018-12-06T01:24:41.928Z,816.96
2018-12-06T01:25:41.940Z,817.10
2018-12-06T01:26:41.950Z,817.17
2018-12-06T01:27:41.962Z,817.12
2018-12-06T01:28:41.972Z,817.11
2018-12-06T01:29:41.983Z,817.07
2018-12-06T01:30:41.998Z,817.11
2018-12-06T01:31:42.008Z,817.06
2018-12-06T01:32:42.019Z,817.03
2018-12-06T01:33:42.029Z,816.96
2018-12-06T01:34:42.040Z,817.00
2018-12-06T01:35:42.055Z,816.93
2018-12-06T01:36:42.065Z,816.98
2018-12-06T01:37:42.073Z,817.02
2018-12-06T01:38:42.083Z,817.01
2018-12-06T01:39:42.095Z,816.98
2018-12-06T01:40:42.108Z,817.01
2018-12-06T01:41:42.119Z,817.09
2018-12-06T01:42:42.128Z,817.07
2018-12-06T01:43:42.143Z,817.04
2018-12-06T01:44:42.152Z,817.11
2018-12-06T01:45:42.161Z,817.05
2018-12-06T01:46:42.175Z,817.07
2018-12-06T01:47:42.185Z,817.14
2018-12-06T01:48:42.196Z,817.08
2018-12-06T01:49:42.207Z,817.08
2018-12-06T01:50:42.218Z,817.06
2018-12-06T01:51:42.227Z,817.11
2018-12-06T01:52:42.239Z,817.12
2018-12-06T01:53:42.250Z,817.10
2018-12-06T01:54:42.261Z,817.13
2018-12-06T01:55:42.272Z,817.06
2018-12-06T01:56:42.283Z,817.10
2018-12-06T01:57:42.293Z,817.10
2018-12-06T01:58:42.305Z,817.07
2018-12-06T01:59:42.317Z,817.26
2018-12-06T02:00:42.326Z,817.14
2018-12-06T02:01:42.336Z,817.15
2018-12-06T02:02:42.346Z,817.17
2018-12-06T02:03:42.361Z,817.23
2018-12-06T02:04:42.370Z,817.22
2018-12-06T02:05:42.381Z,817.22
2018-12-06T02:06:42.392Z,817.15
2018-12-06T02:07:42.402Z,817.19
2018-12-06T02:08:42.413Z,817.17
2018-12-06T02:09:42.423Z,817.22
2018-12-06T02:10:42.433Z,817.14
2018-12-06T02:11:42.443Z,817.15
2018-12-06T02:12:42.456Z,817.12
2018-12-06T02:13:42.466Z,817.15
2018-12-06T02:14:42.476Z,817.17
2018-12-06T02:15:42.487Z,817.20
2018-12-06T02:16:43.883Z,817.05
2018-12-06T02:17:42.509Z,817.10
2018-12-06T02:18:42.518Z,817.12
2018-12-06T02:19:42.530Z,817.05
2018-12-06T02:20:42.540Z,817.08
2018-12-06T02:21:42.555Z,817.12
2018-12-06T02:22:42.561Z,817.01
2018-12-06T02:23:42.580Z,817.05
2018-12-06T02:24:42.584Z,817.08
2018-12-06T02:25:42.595Z,817.01
2018-12-06T02:26:42.603Z,816.94
2018-12-06T02:27:42.616Z,817.05
2018-12-06T02:28:42.631Z,817.08
2018-12-06T02:29:42.640Z,817.01
2018-12-06T02:30:42.649Z,817.03
2018-12-06T02:31:42.660Z,817.05
2018-12-06T02:32:42.673Z,816.95
2018-12-06T02:33:42.681Z,816.98
2018-12-06T02:34:42.690Z,816.99
2018-12-06T02:35:42.706Z,816.88
2018-12-06T02:36:42.714Z,816.85
2018-12-06T02:37:42.724Z,816.92
2018-12-06T02:38:42.733Z,816.94
2018-12-06T02:39:42.769Z,816.82
2018-12-06T02:40:42.755Z,816.86
2018-12-06T02:41:42.766Z,816.87
2018-12-06T02:42:42.774Z,816.90
2018-12-06T02:43:42.788Z,816.86
2018-12-06T02:44:42.800Z,817.01
2018-12-06T02:45:42.814Z,816.98
2018-12-06T02:46:42.818Z,816.95
2018-12-06T02:47:42.829Z,816.92
2018-12-06T02:48:42.842Z,816.82
2018-12-06T02:49:42.853Z,816.84
2018-12-06T02:50:42.863Z,816.82
2018-12-06T02:51:42.874Z,816.84
2018-12-06T02:52:42.885Z,816.93
2018-12-06T02:53:42.898Z,816.96
2018-12-06T02:54:42.906Z,816.99
2018-12-06T02:55:42.915Z,816.88
2018-12-06T02:56:42.926Z,816.81
2018-12-06T02:57:42.937Z,816.88
2018-12-06T02:58:42.947Z,816.91
2018-12-06T02:59:42.956Z,816.91
2018-12-06T03:00:42.968Z,816.97
2018-12-06T03:01:42.983Z,816.96
2018-12-06T03:02:42.988Z,816.96
2018-12-06T03:03:42.999Z,817.05
2018-12-06T03:04:43.010Z,816.99
2018-12-06T03:05:43.021Z,816.99
2018-12-06T03:06:43.030Z,816.99
2018-12-06T03:07:43.039Z,817.01
2018-12-06T03:08:43.050Z,816.98
2018-12-06T03:09:43.154Z,816.99
2018-12-06T03:10:43.090Z,816.94
2018-12-06T03:11:43.081Z,816.87
2018-12-06T03:12:43.091Z,816.77
2018-12-06T03:13:43.103Z,816.83
2018-12-06T03:14:43.112Z,816.81
2018-12-06T03:15:43.123Z,816.81
2018-12-06T03:16:43.132Z,816.83
2018-12-06T03:17:43.146Z,816.83
2018-12-06T03:18:43.153Z,816.83
2018-12-06T03:19:43.166Z,816.83
2018-12-06T03:20:43.175Z,816.81
2018-12-06T03:21:43.186Z,816.73
2018-12-06T03:22:43.194Z,816.73
2018-12-06T03:23:43.207Z,816.70
2018-12-06T03:24:43.217Z,816.73
2018-12-06T03:25:43.227Z,816.69
2018-12-06T03:26:43.236Z,816.72
2018-12-06T03:27:43.250Z,816.70
2018-12-06T03:28:43.257Z,816.72
2018-12-06T03:29:43.268Z,816.71
2018-12-06T03:30:43.278Z,816.71
2018-12-06T03:31:43.295Z,816.77
2018-12-06T03:32:43.302Z,816.76
2018-12-06T03:33:43.310Z,816.76
2018-12-06T03:34:43.319Z,816.69
2018-12-06T03:35:43.329Z,816.73
2018-12-06T03:36:43.339Z,816.75
2018-12-06T03:37:43.349Z,816.77
2018-12-06T03:38:43.359Z,816.75
2018-12-06T03:39:43.370Z,816.73
2018-12-06T03:40:43.379Z,816.78
2018-12-06T03:41:43.500Z,816.72
2018-12-06T03:42:43.401Z,816.74
2018-12-06T03:43:43.413Z,816.77
2018-12-06T03:44:43.423Z,816.72
2018-12-06T03:45:43.435Z,816.76
2018-12-06T03:46:43.442Z,816.75
2018-12-06T03:47:43.452Z,816.74
2018-12-06T03:48:43.462Z,816.82
2018-12-06T03:49:43.490Z,816.85
2018-12-06T03:50:43.483Z,816.76
2018-12-06T03:51:43.493Z,816.79
2018-12-06T03:52:43.507Z,816.75
2018-12-06T03:53:43.517Z,816.70
2018-12-06T03:54:43.524Z,816.69
2018-12-06T03:55:43.535Z,816.67
2018-12-06T03:56:43.550Z,816.63
2018-12-06T03:57:43.558Z,816.62
2018-12-06T03:58:43.575Z,816.63
2018-12-06T03:59:43.579Z,816.55
2018-12-06T04:00:43.588Z,816.57
2018-12-06T04:01:43.599Z,816.50
2018-12-06T04:02:43.614Z,816.47
2018-12-06T04:03:43.616Z,816.48
2018-12-06T04:04:43.628Z,816.49
2018-12-06T04:05:43.638Z,816.45
2018-12-06T04:06:43.649Z,816.45
2018-12-06T04:07:43.658Z,816.41
2018-12-06T04:08:43.672Z,816.42
2018-12-06T04:09:43.678Z,816.42
2018-12-06T04:10:43.688Z,816.38
2018-12-06T04:11:43.700Z,816.44
2018-12-06T04:12:43.715Z,816.42
2018-12-06T04:13:43.724Z,816.41
2018-12-06T04:14:43.734Z,816.44
2018-12-06T04:15:43.742Z,816.43
2018-12-06T04:16:43.752Z,816.45
2018-12-06T04:17:43.763Z,816.47
2018-12-06T04:18:43.773Z,816.47
2018-12-06T04:19:43.781Z,816.45
2018-12-06T04:20:43.792Z,816.47
2018-12-06T04:21:43.806Z,816.47
2018-12-06T04:22:43.812Z,816.44
2018-12-06T04:23:43.822Z,816.43
2018-12-06T04:24:43.833Z,816.42
2018-12-06T04:25:43.843Z,816.40
2018-12-06T04:26:43.852Z,816.34
2018-12-06T04:27:43.862Z,816.33
2018-12-06T04:28:43.875Z,816.31
2018-12-06T04:29:43.887Z,816.31
2018-12-06T04:30:43.898Z,816.32
2018-12-06T04:31:43.908Z,816.30
2018-12-06T04:32:43.918Z,816.29
2018-12-06T04:33:43.925Z,816.33
2018-12-06T04:34:43.937Z,816.29
2018-12-06T04:35:43.946Z,816.34
2018-12-06T04:36:43.966Z,816.33
2018-12-06T04:37:43.968Z,816.36
2018-12-06T04:38:43.981Z,816.35
2018-12-06T04:39:43.987Z,816.37
2018-12-06T04:40:44.000Z,816.36
2018-12-06T04:41:44.009Z,816.34
2018-12-06T04:42:44.020Z,816.42
2018-12-06T04:43:44.028Z,816.40
2018-12-06T04:44:44.042Z,816.47
2018-12-06T04:45:44.051Z,816.46
2018-12-06T04:46:44.059Z,816.50
2018-12-06T04:47:44.068Z,816.49
2018-12-06T04:48:44.084Z,816.49
2018-12-06T04:49:44.093Z,816.54
2018-12-06T04:50:44.102Z,816.52
2018-12-06T04:51:44.109Z,816.52
2018-12-06T04:52:44.120Z,816.51
2018-12-06T04:53:44.131Z,816.54
2018-12-06T04:54:44.141Z,816.60
2018-12-06T04:55:44.150Z,816.62
2018-12-06T04:56:44.160Z,816.58
2018-12-06T04:57:44.179Z,816.60
2018-12-06T04:58:44.179Z,816.63
2018-12-06T04:59:44.192Z,816.61
2018-12-06T05:00:44.204Z,816.64
2018-12-06T05:01:44.214Z,816.61
2018-12-06T05:02:44.221Z,816.65
2018-12-06T05:03:44.230Z,816.60
2018-12-06T05:04:44.240Z,816.57
2018-12-06T05:05:44.251Z,816.56
2018-12-06T05:06:44.260Z,816.57
2018-12-06T05:07:44.271Z,816.58
2018-12-06T05:08:44.283Z,816.57
2018-12-06T05:09:44.294Z,816.54
2018-12-06T05:10:44.306Z,816.62
2018-12-06T05:11:44.309Z,816.65
2018-12-06T05:12:44.319Z,816.67
2018-12-06T05:13:44.336Z,816.70
2018-12-06T05:14:44.342Z,816.66
2018-12-06T05:15:44.350Z,816.70
2018-12-06T05:16:44.362Z,816.70
2018-12-06T05:17:44.369Z,816.67
2018-12-06T05:18:44.379Z,816.74
2018-12-06T05:19:44.388Z,816.74
2018-12-06T05:20:44.398Z,816.73
2018-12-06T05:21:44.409Z,816.80
2018-12-06T05:22:44.417Z,816.79
2018-12-06T05:23:44.428Z,816.78
2018-12-06T05:24:44.437Z,816.85
2018-12-06T05:25:44.448Z,816.81
2018-12-06T05:26:44.454Z,816.81
2018-12-06T05:27:44.464Z,816.86
2018-12-06T05:28:44.474Z,816.91
2018-12-06T05:29:44.483Z,816.89
2018-12-06T05:30:44.494Z,816.93
2018-12-06T05:31:44.505Z,816.95
2018-12-06T05:32:44.512Z,816.96
2018-12-06T05:33:44.521Z,817.01
2018-12-06T05:34:44.529Z,817.02
2018-12-06T05:35:44.541Z,817.02
2018-12-06T05:36:44.550Z,817.04
2018-12-06T05:37:44.558Z,817.06
2018-12-06T05:38:44.567Z,817.13
2018-12-06T05:39:44.577Z,817.10
2018-12-06T05:40:44.585Z,817.10
2018-12-06T05:41:44.598Z,817.12
2018-12-06T05:42:44.606Z,817.11
2018-12-06T05:43:44.612Z,817.15
2018-12-06T05:44:44.622Z,817.13
2018-12-06T05:45:44.634Z,817.17
2018-12-06T05:46:44.642Z,817.12
2018-12-06T05:47:44.649Z,817.15
2018-12-06T05:48:44.659Z,817.13
2018-12-06T05:49:44.669Z,817.19
2018-12-06T05:50:44.678Z,817.14
2018-12-06T05:51:44.688Z,817.11
2018-12-06T05:52:44.696Z,817.10
2018-12-06T05:53:44.709Z,817.12
2018-12-06T05:54:44.715Z,817.11
2018-12-06T05:55:44.725Z,817.11
2018-12-06T05:56:44.735Z,817.08
2018-12-06T05:57:44.744Z,817.07
2018-12-06T05:58:44.751Z,817.08
2018-12-06T05:59:44.762Z,817.11
2018-12-06T06:00:44.770Z,817.06
2018-12-06T06:01:44.782Z,817.05
2018-12-06T06:02:44.791Z,817.07
2018-12-06T06:03:44.798Z,817.09
2018-12-06T06:04:44.808Z,817.12
2018-12-06T06:05:44.816Z,817.11
2018-12-06T06:06:44.824Z,817.16
2018-12-06T06:07:44.832Z,817.16
2018-12-06T06:08:44.842Z,817.18
2018-12-06T06:09:44.851Z,817.16
2018-12-06T06:10:44.861Z,817.22
2018-12-06T06:11:44.869Z,817.19
2018-12-06T06:12:44.881Z,817.17
2018-12-06T06:13:44.890Z,817.19
2018-12-06T06:14:44.899Z,817.21
2018-12-06T06:15:44.909Z,817.15
2018-12-06T06:16:44.957Z,817.14
2018-12-06T06:17:44.925Z,817.17
2018-12-06T06:18:44.940Z,817.18
2018-12-06T06:19:44.942Z,817.16
2018-12-06T06:20:44.951Z,817.16
2018-12-06T06:21:44.962Z,817.17
2018-12-06T06:22:44.969Z,817.20
2018-12-06T06:23:44.977Z,817.18
2018-12-06T06:24:44.990Z,817.17
2018-12-06T06:25:44.997Z,817.17
2018-12-06T06:26:45.003Z,817.12
2018-12-06T06:27:45.012Z,817.14
2018-12-06T06:28:45.025Z,817.15
2018-12-06T06:29:45.033Z,817.19
2018-12-06T06:30:45.038Z,817.20
2018-12-06T06:31:45.052Z,817.18
2018-12-06T06:32:45.058Z,817.18
2018-12-06T06:33:45.068Z,817.18
2018-12-06T06:34:45.077Z,817.15
2018-12-06T06:35:45.086Z,817.12
2018-12-06T06:36:45.104Z,817.14
2018-12-06T06:37:45.108Z,817.18
2018-12-06T06:38:45.109Z,817.15
2018-12-06T06:39:45.118Z,817.20
2018-12-06T06:40:45.128Z,817.23
2018-12-06T06:41:45.139Z,817.22
2018-12-06T06:42:45.148Z,817.21
2018-12-06T06:43:45.152Z,817.25
2018-12-06T06:44:45.161Z,817.27
2018-12-06T06:45:45.172Z,817.27
2018-12-06T06:46:45.179Z,817.29
2018-12-06T06:47:45.189Z,817.28
2018-12-06T06:48:45.198Z,817.32
2018-12-06T06:49:45.207Z,817.33
2018-12-06T06:50:45.215Z,817.33
2018-12-06T06:51:45.224Z,817.29
2018-12-06T06:52:45.237Z,817.31
2018-12-06T06:53:45.244Z,817.32
2018-12-06T06:54:45.255Z,817.32
2018-12-06T06:55:45.258Z,817.34
2018-12-06T06:56:45.271Z,817.30
2018-12-06T06:57:45.278Z,817.30
2018-12-06T06:58:45.288Z,817.29
2018-12-06T06:59:45.297Z,817.30
2018-12-06T07:00:45.303Z,817.30
2018-12-06T07:01:45.316Z,817.32
2018-12-06T07:02:45.321Z,817.34
2018-12-06T07:03:45.331Z,817.36
2018-12-06T07:04:45.340Z,817.38
2018-12-06T07:05:45.349Z,817.40
2018-12-06T07:06:45.356Z,817.41
2018-12-06T07:07:45.367Z,817.39
2018-12-06T07:08:45.374Z,817.42
2018-12-06T07:09:45.383Z,817.45
2018-12-06T07:10:45.396Z,817.42
2018-12-06T07:11:45.401Z,817.44
2018-12-06T07:12:45.410Z,817.43
2018-12-06T07:13:45.419Z,817.43
2018-12-06T07:14:45.426Z,817.43
2018-12-06T07:15:45.436Z,817.42
2018-12-06T07:16:45.446Z,817.47
2018-12-06T07:17:45.457Z,817.45
2018-12-06T07:18:45.463Z,817.50
2018-12-06T07:19:45.473Z,817.50
2018-12-06T07:20:45.482Z,817.53
2018-12-06T07:21:45.492Z,817.53
2018-12-06T07:22:45.500Z,817.55
2018-12-06T07:23:45.508Z,817.58
2018-12-06T07:24:45.517Z,817.60
2018-12-06T07:25:46.516Z,817.60
2018-12-06T07:26:45.544Z,817.63
2018-12-06T07:27:45.545Z,817.65
2018-12-06T07:28:45.554Z,817.70
2018-12-06T07:29:45.562Z,817.67
2018-12-06T07:30:45.571Z,817.66
2018-12-06T07:31:45.579Z,817.70
2018-12-06T07:32:45.590Z,817.73
2018-12-06T07:33:45.603Z,817.74
2018-12-06T07:34:45.607Z,817.74
2018-12-06T07:35:45.614Z,817.74
2018-12-06T07:36:45.627Z,817.79
2018-12-06T07:37:45.634Z,817.79
2018-12-06T07:38:45.646Z,817.79
2018-12-06T07:39:45.653Z,817.82
2018-12-06T07:40:45.661Z,817.82
2018-12-06T07:41:45.678Z,817.82
2018-12-06T07:42:45.679Z,817.78
2018-12-06T07:43:45.693Z,817.76
2018-12-06T07:44:45.697Z,817.79
2018-12-06T07:45:45.706Z,817.79
2018-12-06T07:46:45.715Z,817.77
2018-12-06T07:47:45.726Z,817.84
2018-12-06T07:48:45.740Z,817.86
2018-12-06T07:49:45.746Z,817.84
2018-12-06T07:50:45.752Z,817.84
2018-12-06T07:51:45.762Z,817.86
2018-12-06T07:52:45.772Z,817.88
2018-12-06T07:53:45.782Z,817.89
2018-12-06T07:54:45.790Z,817.91
2018-12-06T07:55:45.799Z,817.91
2018-12-06T07:56:45.810Z,817.89
2018-12-06T07:57:45.819Z,817.93
2018-12-06T07:58:45.830Z,817.91
2018-12-06T07:59:45.837Z,817.89
2018-12-06T08:00:45.845Z,817.94
2018-12-06T08:01:45.856Z,817.92
2018-12-06T08:02:45.867Z,817.90
2018-12-06T08:03:45.872Z,817.88
2018-12-06T08:04:45.881Z,817.86
2018-12-06T08:05:45.895Z,817.87
2018-12-06T08:06:45.906Z,817.85
2018-12-06T08:07:45.913Z,817.80
2018-12-06T08:08:45.925Z,817.82
2018-12-06T08:09:45.930Z,817.86
2018-12-06T08:10:45.950Z,817.83
2018-12-06T08:11:45.949Z,817.81
2018-12-06T08:12:45.960Z,817.86
2018-12-06T08:13:45.967Z,817.84
2018-12-06T08:14:45.977Z,817.91
2018-12-06T08:15:45.985Z,817.87
2018-12-06T08:16:45.997Z,817.90
2018-12-06T08:17:46.004Z,817.90
2018-12-06T08:18:46.013Z,817.94
2018-12-06T08:19:46.023Z,817.92
2018-12-06T08:20:46.038Z,817.91
2018-12-06T08:21:46.040Z,817.95
2018-12-06T08:22:46.051Z,817.97
2018-12-06T08:23:46.062Z,817.96
2018-12-06T08:24:46.068Z,818.03
2018-12-06T08:25:46.081Z,818.07
2018-12-06T08:26:46.087Z,818.07
2018-12-06T08:27:46.098Z,818.06
2018-12-06T08:28:46.106Z,818.11
2018-12-06T08:29:46.117Z,818.15
2018-12-06T08:30:46.125Z,818.15
2018-12-06T08:31:46.134Z,818.18
2018-12-06T08:32:46.147Z,818.19
2018-12-06T08:33:46.156Z,818.24
2018-12-06T08:34:46.160Z,818.20
2018-12-06T08:35:46.170Z,818.29
2018-12-06T08:36:46.178Z,818.28
2018-12-06T08:37:46.190Z,818.28
2018-12-06T08:38:46.197Z,818.30
2018-12-06T08:39:46.209Z,818.26
2018-12-06T08:40:46.219Z,818.29
2018-12-06T08:41:46.234Z,818.25
2018-12-06T08:42:46.242Z,818.25
2018-12-06T08:43:46.245Z,818.30
2018-12-06T08:44:46.254Z,818.32
2018-12-06T08:45:46.262Z,818.24
2018-12-06T08:46:46.269Z,818.24
2018-12-06T08:47:46.278Z,818.27
2018-12-06T08:48:46.294Z,818.30
2018-12-06T08:49:46.299Z,818.24
2018-12-06T08:50:46.308Z,818.30
2018-12-06T08:51:46.315Z,818.30
2018-12-06T08:52:46.323Z,818.35
2018-12-06T08:53:46.332Z,818.36
2018-12-06T08:54:46.341Z,818.38
2018-12-06T08:55:46.350Z,818.31
2018-12-06T08:56:46.361Z,818.27
2018-12-06T08:57:46.371Z,818.25
2018-12-06T08:58:46.377Z,818.27
2018-12-06T08:59:46.388Z,818.22
2018-12-06T09:00:46.396Z,818.29
2018-12-06T09:01:46.404Z,818.25
2018-12-06T09:02:46.411Z,818.31
2018-12-06T09:03:46.422Z,818.40
2018-12-06T09:04:46.430Z,818.41
2018-12-06T09:05:46.440Z,818.46
2018-12-06T09:06:46.445Z,818.44
2018-12-06T09:07:46.456Z,818.44
2018-12-06T09:08:46.467Z,818.45
2018-12-06T09:09:46.472Z,818.46
2018-12-06T09:10:51.578Z,818.45
2018-12-06T09:11:46.491Z,818.49
2018-12-06T09:12:46.504Z,818.50
2018-12-06T09:13:46.508Z,818.49
2018-12-06T09:14:46.515Z,818.48
2018-12-06T09:15:46.526Z,818.52
2018-12-06T09:16:46.534Z,818.50
2018-12-06T09:17:46.570Z,818.53
2018-12-06T09:18:46.551Z,818.54
2018-12-06T09:19:46.560Z,818.52
2018-12-06T09:20:46.568Z,818.53
2018-12-06T09:21:46.579Z,818.55
2018-12-06T09:22:46.586Z,818.54
2018-12-06T09:23:46.594Z,818.54
2018-12-06T09:24:46.606Z,818.54
2018-12-06T09:25:46.613Z,818.58
2018-12-06T09:26:46.620Z,818.56
2018-12-06T09:27:46.631Z,818.55
2018-12-06T09:28:46.639Z,818.58
2018-12-06T09:29:46.649Z,818.58
2018-12-06T09:30:46.658Z,818.59
2018-12-06T09:31:46.664Z,818.64
2018-12-06T09:32:46.675Z,818.63
2018-12-06T09:33:46.682Z,818.64
2018-12-06T09:34:46.691Z,818.66
2018-12-06T09:35:46.701Z,818.67
2018-12-06T09:36:46.709Z,818.69
2018-12-06T09:37:46.720Z,818.68
2018-12-06T09:38:46.725Z,818.73
2018-12-06T09:39:46.734Z,818.79
2018-12-06T09:40:46.744Z,818.80
2018-12-06T09:41:46.752Z,818.83
2018-12-06T09:42:46.770Z,818.82
2018-12-06T09:43:46.771Z,818.90
2018-12-06T09:44:46.780Z,818.90
2018-12-06T09:45:46.788Z,818.97
2018-12-06T09:46:46.795Z,818.95
2018-12-06T09:47:46.806Z,818.97
2018-12-06T09:48:46.814Z,819.01
2018-12-06T09:49:46.825Z,819.02
2018-12-06T09:50:46.832Z,819.03
2018-12-06T09:51:46.842Z,819.02
2018-12-06T09:52:46.853Z,819.01
2018-12-06T09:53:46.859Z,818.97
2018-12-06T09:54:46.867Z,818.95
2018-12-06T09:55:46.878Z,818.96
2018-12-06T09:56:46.885Z,818.96
2018-12-06T09:57:46.896Z,818.95
2018-12-06T09:58:46.907Z,818.94
2018-12-06T09:59:47.085Z,818.90
2018-12-06T10:00:46.926Z,818.87
2018-12-06T10:01:46.933Z,818.87
2018-12-06T10:02:46.942Z,818.87
2018-12-06T10:03:46.951Z,818.93
2018-12-06T10:04:46.959Z,818.96
2018-12-06T10:05:46.968Z,819.04
2018-12-06T10:06:46.976Z,819.04
2018-12-06T10:07:46.987Z,819.05
2018-12-06T10:08:47.074Z,819.07
2018-12-06T10:09:47.002Z,819.13
2018-12-06T10:10:47.014Z,819.10
2018-12-06T10:11:47.021Z,819.08
2018-12-06T10:12:47.030Z,819.07
2018-12-06T10:13:47.040Z,818.99
2018-12-06T10:14:47.051Z,818.98
2018-12-06T10:15:47.058Z,819.00
2018-12-06T10:16:47.069Z,819.00
2018-12-06T10:17:47.078Z,819.09
2018-12-06T10:18:47.084Z,819.09
2018-12-06T10:19:47.102Z,819.13
2018-12-06T10:20:47.103Z,819.08
2018-12-06T10:21:47.113Z,819.06
2018-12-06T10:22:47.123Z,819.11
2018-12-06T10:23:47.131Z,819.14
2018-12-06T10:24:47.140Z,819.15
2018-12-06T10:25:47.150Z,819.12
2018-12-06T10:26:47.157Z,819.15
2018-12-06T10:27:47.167Z,819.13
2018-12-06T10:28:47.181Z,819.14
2018-12-06T10:29:47.186Z,819.10
2018-12-06T10:30:47.195Z,819.12
2018-12-06T10:31:47.204Z,819.16
2018-12-06T10:32:47.215Z,819.17
2018-12-06T10:33:47.225Z,819.18
2018-12-06T10:34:53.441Z,819.23
2018-12-06T10:35:47.239Z,819.19
2018-12-06T10:36:47.250Z,819.15
2018-12-06T10:37:47.259Z,819.15
2018-12-06T10:38:47.268Z,819.11
2018-12-06T10:39:47.276Z,819.09
2018-12-06T10:40:47.286Z,819.09
2018-12-06T10:41:47.295Z,819.08
2018-12-06T10:42:47.306Z,819.09
2018-12-06T10:43:47.313Z,819.08
2018-12-06T10:44:47.323Z,819.04
2018-12-06T10:45:47.333Z,819.05
2018-12-06T10:46:47.338Z,819.03
2018-12-06T10:47:47.346Z,819.03
2018-12-06T10:48:47.357Z,819.01
2018-12-06T10:49:47.367Z,818.99
2018-12-06T10:50:47.374Z,818.99
2018-12-06T10:51:47.388Z,819.00
2018-12-06T10:52:47.391Z,818.99
2018-12-06T10:53:47.401Z,819.01
2018-12-06T10:54:47.452Z,818.97
2018-12-06T10:55:47.418Z,818.98
2018-12-06T10:56:47.426Z,818.96
2018-12-06T10:57:47.436Z,818.95
2018-12-06T10:58:47.448Z,818.98
2018-12-06T10:59:47.455Z,819.04
2018-12-06T11:00:47.462Z,819.02
2018-12-06T11:01:47.471Z,819.02
2018-12-06T11:02:47.481Z,818.98
2018-12-06T11:03:47.487Z,818.99
2018-12-06T11:04:47.497Z,818.98
2018-12-06T11:05:47.506Z,818.98
2018-12-06T11:06:47.515Z,818.99
2018-12-06T11:07:47.523Z,819.02
2018-12-06T11:08:47.533Z,819.03
2018-12-06T11:09:47.543Z,819.05
2018-12-06T11:10:47.549Z,819.04
2018-12-06T11:11:47.560Z,819.06
2018-12-06T11:12:47.568Z,819.03
2018-12-06T11:13:47.611Z,819.06
2018-12-06T11:14:47.584Z,819.04
2018-12-06T11:15:47.594Z,819.07
2018-12-06T11:16:47.655Z,819.09
2018-12-06T11:17:47.613Z,819.12
2018-12-06T11:18:47.620Z,819.11
2018-12-06T11:19:47.630Z,819.09
2018-12-06T11:20:47.639Z,819.09
2018-12-06T11:21:47.649Z,819.04
2018-12-06T11:22:47.662Z,819.07
2018-12-06T11:23:47.812Z,819.07
2018-12-06T11:24:47.685Z,819.04
2018-12-06T11:25:47.688Z,819.02
2018-12-06T11:26:47.695Z,819.03
2018-12-06T11:27:47.703Z,819.02
2018-12-06T11:28:47.716Z,818.97
2018-12-06T11:29:47.722Z,819.01
2018-12-06T11:30:47.732Z,819.02
2018-12-06T11:31:47.742Z,819.04
2018-12-06T11:32:47.750Z,819.09
2018-12-06T11:33:47.758Z,819.09
2018-12-06T11:34:47.772Z,819.19
2018-12-06T11:35:47.779Z,819.16
2018-12-06T11:36:47.790Z,819.15
2018-12-06T11:37:47.798Z,819.17
2018-12-06T11:38:47.807Z,819.17
2018-12-06T11:39:47.817Z,819.18
2018-12-06T11:40:47.825Z,819.21
2018-12-06T11:41:47.838Z,819.20
2018-12-06T11:42:47.846Z,819.24
2018-12-06T11:43:47.857Z,819.25
2018-12-06T11:44:47.863Z,819.24
2018-12-06T11:45:47.875Z,819.22
2018-12-06T11:46:47.881Z,819.24
2018-12-06T11:47:47.897Z,819.22
2018-12-06T11:48:47.903Z,819.19
2018-12-06T11:49:47.914Z,819.19
2018-12-06T11:50:47.921Z,819.24
2018-12-06T11:51:47.937Z,819.23
2018-12-06T11:52:47.946Z,819.28
2018-12-06T11:53:47.951Z,819.27
2018-12-06T11:54:47.957Z,819.28
2018-12-06T11:55:47.969Z,819.28
2018-12-06T11:56:47.979Z,819.32
2018-12-06T11:57:47.988Z,819.32
2018-12-06T11:58:47.999Z,819.35
2018-12-06T11:59:48.009Z,819.36
2018-12-06T12:00:48.018Z,819.35
2018-12-06T12:01:48.030Z,819.34
2018-12-06T12:02:48.039Z,819.37
2018-12-06T12:03:48.052Z,819.38
2018-12-06T12:04:48.061Z,819.37
2018-12-06T12:05:48.072Z,819.41
2018-12-06T12:06:48.079Z,819.41
2018-12-06T12:07:48.091Z,819.44
2018-12-06T12:08:48.105Z,819.42
2018-12-06T12:09:48.111Z,819.42
2018-12-06T12:10:48.119Z,819.45
2018-12-06T12:11:48.132Z,819.43
2018-12-06T12:12:48.139Z,819.42
2018-12-06T12:13:48.153Z,819.41
2018-12-06T12:14:48.161Z,819.40
2018-12-06T12:15:48.173Z,819.40
2018-12-06T12:16:48.183Z,819.39
2018-12-06T12:17:48.193Z,819.38
2018-12-06T12:18:48.206Z,819.38
2018-12-06T12:19:48.212Z,819.40
2018-12-06T12:20:48.222Z,819.35
2018-12-06T12:21:48.236Z,819.37
2018-12-06T12:22:48.243Z,819.34
2018-12-06T12:23:48.256Z,819.36
2018-12-06T12:24:48.266Z,819.34
2018-12-06T12:25:48.277Z,819.33
2018-12-06T12:26:48.286Z,819.30
2018-12-06T12:27:48.294Z,819.32
2018-12-06T12:28:48.306Z,819.32